createdAt,value
2019-01-13T00:02:44.372Z,7.20
2019-01-13T00:06:46.758Z,7.50
2019-01-13T00:10:49.154Z,7.40
2019-01-13T00:14:51.527Z,7.30
2019-01-13T00:18:53.894Z,7.40
2019-01-13T00:22:56.287Z,7.60
2019-01-13T00:26:58.696Z,8.10
2019-01-13T00:31:01.110Z,7.60
2019-01-13T00:35:04.012Z,7.60
2019-01-13T00:39:07.460Z,7.10
2019-01-13T00:43:09.831Z,7.50
2019-01-13T00:47:12.183Z,7.70
2019-01-13T00:51:14.546Z,7.10
2019-01-13T00:55:16.966Z,7.60
2019-01-13T00:59:19.295Z,8.10
2019-01-13T01:03:21.641Z,7.50
2019-01-13T01:07:24.067Z,7.50
2019-01-13T01:11:26.445Z,7.60
2019-01-13T01:15:28.872Z,7.60
2019-01-13T01:19:31.185Z,7.30
2019-01-13T01:23:34.372Z,7.40
2019-01-13T01:27:36.721Z,7.10
2019-01-13T01:31:39.149Z,7.80
2019-01-13T01:35:41.545Z,8.00
2019-01-13T01:39:43.869Z,7.90
2019-01-13T01:43:46.275Z,9.20
2019-01-13T01:47:48.677Z,8.80
2019-01-13T01:51:51.020Z,8.20
2019-01-13T01:55:53.387Z,8.80
2019-01-13T01:59:55.714Z,8.30
2019-01-13T02:03:57.988Z,8.60
2019-01-13T02:08:00.376Z,8.60
2019-01-13T02:12:02.750Z,8.30
2019-01-13T02:16:05.152Z,8.30
2019-01-13T02:20:10.086Z,8.70
2019-01-13T02:24:12.384Z,8.70
2019-01-13T02:28:14.714Z,7.80
2019-01-13T02:32:17.006Z,7.90
2019-01-13T02:36:19.376Z,8.10
2019-01-13T02:40:22.141Z,8.10
2019-01-13T02:44:24.430Z,9.10
2019-01-13T02:48:26.707Z,8.70
2019-01-13T02:52:29.052Z,8.60
2019-01-13T02:56:31.371Z,8.80
2019-01-13T03:00:33.749Z,8.70
2019-01-13T03:04:36.106Z,8.40
2019-01-13T03:08:38.494Z,9.50
2019-01-13T03:12:40.850Z,9.10
2019-01-13T03:16:43.265Z,8.70
2019-01-13T03:20:45.869Z,8.90
2019-01-13T03:24:48.201Z,9.30
2019-01-13T03:28:50.511Z,8.60
2019-01-13T03:32:52.977Z,8.40
2019-01-13T03:36:55.321Z,8.40
2019-01-13T03:40:57.664Z,7.60
2019-01-13T03:44:59.970Z,7.50
2019-01-13T03:49:02.340Z,8.30
2019-01-13T03:53:04.659Z,7.50
2019-01-13T03:57:07.014Z,8.50
2019-01-13T04:01:09.395Z,8.40
2019-01-13T04:05:11.851Z,8.10
2019-01-13T04:09:14.159Z,8.50
2019-01-13T04:13:16.546Z,8.10
2019-01-13T04:17:18.978Z,8.60
2019-01-13T04:21:21.325Z,8.50
2019-01-13T04:25:23.678Z,8.30
2019-01-13T04:29:25.960Z,7.90
2019-01-13T04:33:28.310Z,8.40
2019-01-13T04:37:30.603Z,8.20
2019-01-13T04:41:32.962Z,8.70
2019-01-13T04:45:35.321Z,9.10
2019-01-13T04:49:37.750Z,7.70
2019-01-13T04:53:40.191Z,8.80
2019-01-13T04:57:42.544Z,8.70
2019-01-13T05:01:44.835Z,9.40
2019-01-13T05:05:47.141Z,9.70
2019-01-13T05:09:49.583Z,10.10
2019-01-13T05:13:51.877Z,9.10
2019-01-13T05:17:54.241Z,9.30
2019-01-13T05:21:56.541Z,10.20
2019-01-13T05:25:58.855Z,10.50
2019-01-13T05:30:01.218Z,10.60
2019-01-13T05:34:03.559Z,10.10
2019-01-13T05:38:05.904Z,10.10
2019-01-13T05:42:08.273Z,10.10
2019-01-13T05:46:10.679Z,10.20
2019-01-13T05:50:14.483Z,8.80
2019-01-13T05:54:16.775Z,9.80
2019-01-13T05:58:19.133Z,9.70
2019-01-13T06:02:21.520Z,9.60
2019-01-13T06:06:23.967Z,9.30
2019-01-13T06:10:26.324Z,9.20
2019-01-13T06:14:28.679Z,9.30
2019-01-13T06:18:31.069Z,9.30
2019-01-13T06:22:33.434Z,9.20
2019-01-13T06:26:35.730Z,8.90
2019-01-13T06:30:38.049Z,8.80
2019-01-13T06:34:40.379Z,9.60
2019-01-13T06:38:42.722Z,9.80
2019-01-13T06:42:45.098Z,9.50
2019-01-13T06:46:47.442Z,9.30
2019-01-13T06:50:50.490Z,9.00
2019-01-13T06:54:52.827Z,9.00
2019-01-13T06:58:55.163Z,9.40
2019-01-13T07:02:58.037Z,9.20
2019-01-13T07:07:00.458Z,9.30
2019-01-13T07:11:02.854Z,8.90
2019-01-13T07:15:06.778Z,9.30
2019-01-13T07:19:09.139Z,9.50
2019-01-13T07:23:11.463Z,10.00
2019-01-13T07:27:13.783Z,9.40
2019-01-13T07:31:16.162Z,9.80
2019-01-13T07:35:18.538Z,10.00
2019-01-13T07:39:20.954Z,10.60
2019-01-13T07:43:23.348Z,10.50
2019-01-13T07:47:25.719Z,10.30
2019-01-13T07:51:28.073Z,10.10
2019-01-13T07:55:30.442Z,10.10
2019-01-13T07:59:32.836Z,9.70
2019-01-13T08:03:35.226Z,9.80
2019-01-13T08:07:37.642Z,9.60
2019-01-13T08:11:40.028Z,9.40
2019-01-13T08:15:42.377Z,9.50
2019-01-13T08:19:44.773Z,9.90
2019-01-13T08:23:47.131Z,9.00
2019-01-13T08:27:49.546Z,9.20
2019-01-13T08:31:51.916Z,8.90
2019-01-13T08:35:54.313Z,8.70
2019-01-13T08:39:56.683Z,9.40
2019-01-13T08:43:59.006Z,9.60
2019-01-13T08:48:01.348Z,9.30
2019-01-13T08:52:03.809Z,9.40
2019-01-13T08:56:06.247Z,9.20
2019-01-13T09:00:14.396Z,8.80
2019-01-13T09:04:16.784Z,10.00
2019-01-13T09:08:19.077Z,10.30
2019-01-13T09:12:21.647Z,10.20
2019-01-13T09:16:24.062Z,9.80
2019-01-13T09:20:28.220Z,9.50
2019-01-13T09:24:30.592Z,9.10
2019-01-13T09:28:32.948Z,10.20
2019-01-13T09:32:39.455Z,10.10
2019-01-13T09:36:37.721Z,9.50
2019-01-13T09:40:40.046Z,9.10
2019-01-13T09:44:42.426Z,8.80
2019-01-13T09:48:44.886Z,9.60
2019-01-13T09:52:47.391Z,9.70
2019-01-13T09:56:49.745Z,9.10
2019-01-13T10:00:52.156Z,9.90
2019-01-13T10:04:54.592Z,9.20
2019-01-13T10:08:56.991Z,9.10
2019-01-13T10:12:59.400Z,8.60
2019-01-13T10:17:02.780Z,8.50
2019-01-13T10:21:05.565Z,8.80
2019-01-13T10:25:08.633Z,8.80
2019-01-13T10:29:11.195Z,9.00
2019-01-13T10:33:13.656Z,9.30
2019-01-13T10:37:16.043Z,8.50
2019-01-13T10:41:18.484Z,8.70
2019-01-13T10:45:20.959Z,9.20
2019-01-13T10:49:23.381Z,9.20
2019-01-13T10:53:25.676Z,8.90
2019-01-13T10:57:28.686Z,9.20
2019-01-13T11:01:31.051Z,8.90
2019-01-13T11:05:34.778Z,9.50
2019-01-13T11:09:37.172Z,9.00
2019-01-13T11:13:39.497Z,9.30
2019-01-13T11:17:41.878Z,9.70
2019-01-13T11:21:44.487Z,9.70
2019-01-13T11:25:46.964Z,9.80
2019-01-13T11:29:49.312Z,10.50
2019-01-13T11:33:51.695Z,9.40
2019-01-13T11:37:54.074Z,9.80
2019-01-13T11:41:56.445Z,9.00
2019-01-13T11:45:59.077Z,9.90
2019-01-13T11:50:01.598Z,9.20
2019-01-13T11:54:04.142Z,10.10
2019-01-13T11:58:06.630Z,9.30
2019-01-13T12:02:10.730Z,9.80
2019-01-13T12:06:14.189Z,9.90
2019-01-13T12:10:18.085Z,9.30
2019-01-13T12:14:20.535Z,9.70
2019-01-13T12:18:23.020Z,9.60
2019-01-13T12:22:25.469Z,9.30
2019-01-13T12:26:27.909Z,9.30
2019-01-13T12:30:31.329Z,10.10
2019-01-13T12:34:33.667Z,9.80
2019-01-13T12:38:36.046Z,9.70
2019-01-13T12:42:38.443Z,9.20
2019-01-13T12:46:40.879Z,10.60
2019-01-13T12:50:43.285Z,10.00
2019-01-13T12:54:45.584Z,10.30
2019-01-13T12:58:47.964Z,9.90
2019-01-13T13:02:50.345Z,9.70
2019-01-13T13:06:52.735Z,9.80
2019-01-13T13:10:55.992Z,10.00
2019-01-13T13:14:58.349Z,9.60
2019-01-13T13:19:00.704Z,10.00
2019-01-13T13:23:04.308Z,10.00
2019-01-13T13:27:05.806Z,9.90
2019-01-13T13:31:08.249Z,9.80
2019-01-13T13:35:10.695Z,9.70
2019-01-13T13:39:13.170Z,10.30
2019-01-13T13:43:15.495Z,10.10
2019-01-13T13:47:17.865Z,9.40
2019-01-13T13:51:20.371Z,9.30
2019-01-13T13:55:22.893Z,9.10
2019-01-13T13:59:25.219Z,9.40
2019-01-13T14:03:27.669Z,9.70
2019-01-13T14:07:30.042Z,9.30
2019-01-13T14:11:32.459Z,9.40
2019-01-13T14:15:34.907Z,9.80
2019-01-13T14:19:37.255Z,10.00
2019-01-13T14:23:39.738Z,9.50
2019-01-13T14:27:42.198Z,9.30
2019-01-13T14:31:44.617Z,9.40
2019-01-13T14:35:47.052Z,9.30
2019-01-13T14:39:49.383Z,9.60
2019-01-13T14:43:51.734Z,9.20
2019-01-13T14:47:54.254Z,9.10
2019-01-13T14:51:56.658Z,9.30
2019-01-13T14:55:59.150Z,9.10
2019-01-13T15:00:01.556Z,9.50
2019-01-13T15:04:03.945Z,8.90
2019-01-13T15:08:06.348Z,8.70
2019-01-13T15:12:08.730Z,8.80
2019-01-13T15:16:11.145Z,9.20
2019-01-13T15:20:15.698Z,9.30
2019-01-13T15:24:18.002Z,9.70
2019-01-13T15:28:20.438Z,9.60
2019-01-13T15:32:22.943Z,9.00
2019-01-13T15:36:25.451Z,9.00
2019-01-13T15:40:28.563Z,9.30
2019-01-13T15:44:31.062Z,8.90
2019-01-13T15:48:33.413Z,9.30
2019-01-13T15:52:36.118Z,8.80
2019-01-13T15:56:38.641Z,9.00
2019-01-13T16:00:41.102Z,9.50
2019-01-13T16:04:43.544Z,9.30
2019-01-13T16:08:46.048Z,9.30
2019-01-13T16:12:48.576Z,9.10
2019-01-13T16:16:50.937Z,9.30
2019-01-13T16:20:53.321Z,9.10
2019-01-13T16:24:55.676Z,9.30
2019-01-13T16:28:58.113Z,8.90
2019-01-13T16:33:00.535Z,9.00
2019-01-13T16:37:02.957Z,9.20
2019-01-13T16:41:05.477Z,9.20
2019-01-13T16:45:08.899Z,9.20
2019-01-13T16:49:11.322Z,10.00
2019-01-13T16:53:13.680Z,9.70
2019-01-13T16:57:16.347Z,9.60
2019-01-13T17:01:18.732Z,9.80
2019-01-13T17:05:22.300Z,9.10
2019-01-13T17:09:24.633Z,9.00
2019-01-13T17:13:27.114Z,9.40
2019-01-13T17:17:29.407Z,9.60
2019-01-13T17:21:31.848Z,9.30
2019-01-13T17:25:34.263Z,9.20
2019-01-13T17:29:36.684Z,9.40
2019-01-13T17:33:39.049Z,9.70
2019-01-13T17:37:41.423Z,10.10
2019-01-13T17:41:43.948Z,9.70
2019-01-13T17:45:46.306Z,9.70
2019-01-13T17:49:48.797Z,9.00
2019-01-13T17:53:51.246Z,9.20
2019-01-13T17:57:53.661Z,9.00
2019-01-13T18:01:56.163Z,9.90
2019-01-13T18:05:58.717Z,9.00
2019-01-13T18:10:01.059Z,9.30
2019-01-13T18:14:03.818Z,9.80
2019-01-13T18:18:06.273Z,9.80
2019-01-13T18:22:08.713Z,8.60
2019-01-13T18:26:11.078Z,8.80
2019-01-13T18:30:16.293Z,9.00
2019-01-13T18:34:18.696Z,9.50
2019-01-13T18:38:21.118Z,9.50
2019-01-13T18:42:23.521Z,9.30
2019-01-13T18:46:25.977Z,9.50
2019-01-13T18:50:28.423Z,9.20
2019-01-13T18:54:30.796Z,9.10
2019-01-13T18:58:33.176Z,9.30
2019-01-13T19:02:35.545Z,9.60
2019-01-13T19:06:37.999Z,9.40
2019-01-13T19:11:11.177Z,9.30
2019-01-13T19:15:14.439Z,9.00
2019-01-13T19:19:17.494Z,8.80
2019-01-13T19:23:22.901Z,9.70
2019-01-13T19:27:25.332Z,9.70
2019-01-13T19:31:27.777Z,9.00
2019-01-13T19:35:30.196Z,8.30
2019-01-13T19:39:32.637Z,8.30
2019-01-13T19:43:35.065Z,8.90
2019-01-13T19:47:37.440Z,8.60
2019-01-13T19:51:39.835Z,8.00
2019-01-13T19:55:42.224Z,7.90
2019-01-13T19:59:44.621Z,7.80
2019-01-13T20:03:47.139Z,8.10
2019-01-13T20:07:49.595Z,7.70
2019-01-13T20:11:51.972Z,8.10
2019-01-13T20:15:54.385Z,8.40
2019-01-13T20:19:56.766Z,8.30
2019-01-13T20:23:59.159Z,8.80
2019-01-13T20:28:01.626Z,8.30
2019-01-13T20:32:04.385Z,7.90
2019-01-13T20:36:06.841Z,8.20
2019-01-13T20:40:09.748Z,7.90
2019-01-13T20:44:14.001Z,7.20
2019-01-13T20:48:16.479Z,7.00
2019-01-13T20:52:18.876Z,7.30
2019-01-13T20:56:21.534Z,7.50
2019-01-13T21:00:24.172Z,7.20
2019-01-13T21:04:26.627Z,8.30
2019-01-13T21:08:29.087Z,7.30
2019-01-13T21:12:31.549Z,6.80
2019-01-13T21:16:33.962Z,7.20
2019-01-13T21:20:36.405Z,7.70
2019-01-13T21:24:38.866Z,6.70
2019-01-13T21:28:41.216Z,7.10
2019-01-13T21:32:43.639Z,7.00
2019-01-13T21:36:46.020Z,7.70
2019-01-13T21:40:48.425Z,7.20
2019-01-13T21:44:50.861Z,6.70
2019-01-13T21:48:53.326Z,6.80
2019-01-13T21:52:55.716Z,7.50
2019-01-13T21:56:58.045Z,7.70
2019-01-13T22:01:00.425Z,7.50
2019-01-13T22:05:02.959Z,7.60
2019-01-13T22:09:09.023Z,7.50
2019-01-13T22:13:11.471Z,7.50
2019-01-13T22:17:13.896Z,7.40
2019-01-13T22:21:16.350Z,7.30
2019-01-13T22:25:18.871Z,7.70
2019-01-13T22:29:21.216Z,6.90
2019-01-13T22:33:23.621Z,7.50
2019-01-13T22:37:26.040Z,7.20
2019-01-13T22:41:28.490Z,7.10
2019-01-13T22:45:30.908Z,7.10
2019-01-13T22:49:33.224Z,7.00
2019-01-13T22:53:35.592Z,7.70
2019-01-13T22:57:37.953Z,7.30
2019-01-13T23:01:42.274Z,7.60
2019-01-13T23:05:44.716Z,7.70
2019-01-13T23:09:47.114Z,7.20
2019-01-13T23:13:49.453Z,7.40
2019-01-13T23:17:51.869Z,7.20
2019-01-13T23:21:54.295Z,7.20
2019-01-13T23:25:56.702Z,7.30
2019-01-13T23:29:59.009Z,7.00
2019-01-13T23:34:01.345Z,7.10
2019-01-13T23:38:03.813Z,7.00
2019-01-13T23:42:06.200Z,7.30
2019-01-13T23:46:08.529Z,7.10
2019-01-13T23:50:11.006Z,7.60
2019-01-13T23:54:13.332Z,7.00
2019-01-13T23:58:15.613Z,7.10
